sensor_id;sensor_type;location;lat;lon;timestamp;pressure;altitude;pressure_sealevel;temperature;humidity
84835;BME280;75078;42.636;23.198;2024-03-25T00:00:18;90874.22;;;2.58;80.12
84835;BME280;75078;42.636;23.198;2024-03-25T00:02:43;90873.47;;;2.57;80.06
84835;BME280;75078;42.636;23.198;2024-03-25T00:05:09;90866.09;;;2.52;80.06
84835;BME280;75078;42.636;23.198;2024-03-25T00:07:37;90863.97;;;2.54;79.88
84835;BME280;75078;42.636;23.198;2024-03-25T00:10:04;90853.72;;;2.51;79.14
84835;BME280;75078;42.636;23.198;2024-03-25T00:12:31;90851.59;;;2.53;79.56
84835;BME280;75078;42.636;23.198;2024-03-25T00:14:56;90854.63;;;2.58;79.62
84835;BME280;75078;42.636;23.198;2024-03-25T00:17:22;90849.94;;;2.60;79.07
84835;BME280;75078;42.636;23.198;2024-03-25T00:19:47;90853.06;;;2.54;79.54
84835;BME280;75078;42.636;23.198;2024-03-25T00:22:19;90843.00;;;2.57;78.55
84835;BME280;75078;42.636;23.198;2024-03-25T00:24:48;90843.00;;;2.57;79.45
84835;BME280;75078;42.636;23.198;2024-03-25T00:27:14;90840.69;;;2.52;78.77
84835;BME280;75078;42.636;23.198;2024-03-25T00:29:40;90840.78;;;2.56;79.12
84835;BME280;75078;42.636;23.198;2024-03-25T00:32:06;90831.19;;;2.49;78.82
84835;BME280;75078;42.636;23.198;2024-03-25T00:34:32;90839.88;;;2.48;79.99
84835;BME280;75078;42.636;23.198;2024-03-25T00:36:58;90827.47;;;2.47;79.36
84835;BME280;75078;42.636;23.198;2024-03-25T00:39:23;90833.31;;;2.47;80.03
84835;BME280;75078;42.636;23.198;2024-03-25T00:41:48;90831.50;;;2.48;79.59
84835;BME280;75078;42.636;23.198;2024-03-25T00:44:14;90831.84;;;2.46;80.83
84835;BME280;75078;42.636;23.198;2024-03-25T00:46:39;90839.22;;;2.51;80.26
84835;BME280;75078;42.636;23.198;2024-03-25T00:49:07;90832.31;;;2.52;80.04
84835;BME280;75078;42.636;23.198;2024-03-25T00:51:32;90832.44;;;2.55;79.21
84835;BME280;75078;42.636;23.198;2024-03-25T00:53:58;90830.53;;;2.52;79.24
84835;BME280;75078;42.636;23.198;2024-03-25T00:56:23;90835.44;;;2.45;79.06
84835;BME280;75078;42.636;23.198;2024-03-25T00:58:48;90839.19;;;2.36;79.08
84835;BME280;75078;42.636;23.198;2024-03-25T01:01:13;90828.72;;;2.37;79.70
84835;BME280;75078;42.636;23.198;2024-03-25T01:03:39;90836.22;;;2.06;80.31
84835;BME280;75078;42.636;23.198;2024-03-25T01:06:04;90820.56;;;2.16;80.11
84835;BME280;75078;42.636;23.198;2024-03-25T01:08:30;90799.19;;;2.17;80.93
84835;BME280;75078;42.636;23.198;2024-03-25T01:10:55;90790.59;;;2.22;81.08
84835;BME280;75078;42.636;23.198;2024-03-25T01:13:21;90789.28;;;2.28;80.99
84835;BME280;75078;42.636;23.198;2024-03-25T01:15:46;90780.69;;;2.32;81.47
84835;BME280;75078;42.636;23.198;2024-03-25T01:18:12;90783.00;;;2.37;81.38
84835;BME280;75078;42.636;23.198;2024-03-25T01:20:37;90779.09;;;2.40;81.06
84835;BME280;75078;42.636;23.198;2024-03-25T01:23:03;90783.19;;;2.44;80.59
84835;BME280;75078;42.636;23.198;2024-03-25T01:25:30;90784.66;;;2.45;80.06
84835;BME280;75078;42.636;23.198;2024-03-25T01:27:55;90796.94;;;2.43;79.80
84835;BME280;75078;42.636;23.198;2024-03-25T01:30:20;90801.66;;;2.29;79.90
84835;BME280;75078;42.636;23.198;2024-03-25T01:32:46;90805.50;;;2.23;80.04
84835;BME280;75078;42.636;23.198;2024-03-25T01:35:14;90810.97;;;2.09;80.41
84835;BME280;75078;42.636;23.198;2024-03-25T01:37:40;90819.44;;;2.01;81.13
84835;BME280;75078;42.636;23.198;2024-03-25T01:40:06;90801.78;;;2.05;81.14
84835;BME280;75078;42.636;23.198;2024-03-25T01:42:32;90810.91;;;1.94;81.45
84835;BME280;75078;42.636;23.198;2024-03-25T01:44:57;90792.31;;;1.90;81.71
84835;BME280;75078;42.636;23.198;2024-03-25T01:47:23;90792.94;;;1.99;81.25
84835;BME280;75078;42.636;23.198;2024-03-25T01:49:49;90792.44;;;2.09;81.75
84835;BME280;75078;42.636;23.198;2024-03-25T01:52:19;90794.53;;;2.19;81.65
84835;BME280;75078;42.636;23.198;2024-03-25T01:54:45;90794.94;;;2.21;81.77
84835;BME280;75078;42.636;23.198;2024-03-25T01:57:11;90805.34;;;2.32;81.79
84835;BME280;75078;42.636;23.198;2024-03-25T01:59:38;90809.03;;;2.34;81.92
84835;BME280;75078;42.636;23.198;2024-03-25T02:02:04;90799.53;;;2.31;81.08
84835;BME280;75078;42.636;23.198;2024-03-25T02:04:31;90816.97;;;2.17;81.42
84835;BME280;75078;42.636;23.198;2024-03-25T02:06:56;90816.97;;;2.17;80.69
84835;BME280;75078;42.636;23.198;2024-03-25T02:09:23;90807.63;;;2.21;81.50
84835;BME280;75078;42.636;23.198;2024-03-25T02:11:50;90811.00;;;2.25;81.88
84835;BME280;75078;42.636;23.198;2024-03-25T02:14:16;90808.88;;;2.27;80.52
84835;BME280;75078;42.636;23.198;2024-03-25T02:16:41;90806.56;;;2.22;80.95
84835;BME280;75078;42.636;23.198;2024-03-25T02:19:07;90805.28;;;2.28;81.54
84835;BME280;75078;42.636;23.198;2024-03-25T02:21:34;90803.97;;;2.34;81.75
84835;BME280;75078;42.636;23.198;2024-03-25T02:23:59;90812.09;;;2.40;81.91
84835;BME280;75078;42.636;23.198;2024-03-25T02:26:26;90814.94;;;2.38;81.96
84835;BME280;75078;42.636;23.198;2024-03-25T02:28:51;90813.88;;;2.39;81.39
84835;BME280;75078;42.636;23.198;2024-03-25T02:31:16;90821.41;;;2.36;80.80
84835;BME280;75078;42.636;23.198;2024-03-25T02:33:42;90820.69;;;2.35;80.56
84835;BME280;75078;42.636;23.198;2024-03-25T02:36:07;90823.63;;;2.37;80.75
84835;BME280;75078;42.636;23.198;2024-03-25T02:38:33;90820.34;;;2.37;80.44
84835;BME280;75078;42.636;23.198;2024-03-25T02:40:59;90820.84;;;2.42;80.70
84835;BME280;75078;42.636;23.198;2024-03-25T02:43:25;90823.47;;;2.30;81.38
84835;BME280;75078;42.636;23.198;2024-03-25T02:45:50;90828.75;;;2.25;80.98
84835;BME280;75078;42.636;23.198;2024-03-25T02:48:16;90840.22;;;2.19;80.81
84835;BME280;75078;42.636;23.198;2024-03-25T02:50:41;90833.44;;;2.23;81.84
84835;BME280;75078;42.636;23.198;2024-03-25T02:53:06;90830.25;;;2.26;81.95
84835;BME280;75078;42.636;23.198;2024-03-25T02:55:32;90850.19;;;2.12;81.23
84835;BME280;75078;42.636;23.198;2024-03-25T02:57:57;90843.44;;;2.04;81.53
84835;BME280;75078;42.636;23.198;2024-03-25T03:00:22;90851.16;;;2.07;82.27
84835;BME280;75078;42.636;23.198;2024-03-25T03:02:48;90857.06;;;2.11;82.13
84835;BME280;75078;42.636;23.198;2024-03-25T03:05:13;90857.06;;;2.11;81.56
84835;BME280;75078;42.636;23.198;2024-03-25T03:07:39;90855.75;;;1.90;81.88
84835;BME280;75078;42.636;23.198;2024-03-25T03:10:04;90861.97;;;1.92;82.31
84835;BME280;75078;42.636;23.198;2024-03-25T03:12:30;90857.41;;;1.98;82.45
84835;BME280;75078;42.636;23.198;2024-03-25T03:14:55;90863.19;;;1.71;83.12
84835;BME280;75078;42.636;23.198;2024-03-25T03:17:21;90864.03;;;1.75;83.43
84835;BME280;75078;42.636;23.198;2024-03-25T03:19:46;90860.22;;;1.69;82.85
84835;BME280;75078;42.636;23.198;2024-03-25T03:22:11;90868.50;;;1.54;83.33
84835;BME280;75078;42.636;23.198;2024-03-25T03:24:37;90879.69;;;1.40;82.95
84835;BME280;75078;42.636;23.198;2024-03-25T03:27:02;90879.47;;;1.33;83.91
84835;BME280;75078;42.636;23.198;2024-03-25T03:29:27;90894.69;;;1.33;83.71
84835;BME280;75078;42.636;23.198;2024-03-25T03:31:53;90891.03;;;1.31;84.33
84835;BME280;75078;42.636;23.198;2024-03-25T03:34:18;90885.63;;;1.20;84.32
84835;BME280;75078;42.636;23.198;2024-03-25T03:36:44;90878.88;;;1.24;84.51
84835;BME280;75078;42.636;23.198;2024-03-25T03:39:09;90882.88;;;1.25;84.47
84835;BME280;75078;42.636;23.198;2024-03-25T03:41:35;90883.09;;;1.32;83.99
84835;BME280;75078;42.636;23.198;2024-03-25T03:44:01;90883.50;;;1.47;85.27
84835;BME280;75078;42.636;23.198;2024-03-25T03:46:26;90893.66;;;1.47;84.35
84835;BME280;75078;42.636;23.198;2024-03-25T03:48:51;90897.03;;;1.51;83.55
84835;BME280;75078;42.636;23.198;2024-03-25T03:51:17;90883.47;;;1.59;84.40
84835;BME280;75078;42.636;23.198;2024-03-25T03:53:42;90889.94;;;1.56;82.38
84835;BME280;75078;42.636;23.198;2024-03-25T03:56:07;90894.50;;;1.63;83.26
84835;BME280;75078;42.636;23.198;2024-03-25T03:58:34;90910.75;;;1.74;84.41
84835;BME280;75078;42.636;23.198;2024-03-25T04:00:59;90923.19;;;1.79;83.64
84835;BME280;75078;42.636;23.198;2024-03-25T04:03:25;90928.94;;;1.76;83.54
84835;BME280;75078;42.636;23.198;2024-03-25T04:05:51;90925.84;;;1.82;83.51
84835;BME280;75078;42.636;23.198;2024-03-25T04:08:16;90920.88;;;1.86;83.24
84835;BME280;75078;42.636;23.198;2024-03-25T04:10:43;90928.81;;;1.96;83.22
84835;BME280;75078;42.636;23.198;2024-03-25T04:13:09;90927.19;;;2.04;82.65
84835;BME280;75078;42.636;23.198;2024-03-25T04:15:35;90936.06;;;2.10;82.47
84835;BME280;75078;42.636;23.198;2024-03-25T04:18:00;90933.53;;;1.98;82.04
84835;BME280;75078;42.636;23.198;2024-03-25T04:20:29;90942.41;;;2.04;82.24
84835;BME280;75078;42.636;23.198;2024-03-25T04:22:55;90944.53;;;2.02;82.58
84835;BME280;75078;42.636;23.198;2024-03-25T04:25:20;90935.03;;;1.99;81.96
84835;BME280;75078;42.636;23.198;2024-03-25T04:27:46;90936.75;;;1.83;81.35
84835;BME280;75078;42.636;23.198;2024-03-25T04:30:11;90949.44;;;1.83;81.98
84835;BME280;75078;42.636;23.198;2024-03-25T04:32:38;90966.66;;;1.89;81.38
84835;BME280;75078;42.636;23.198;2024-03-25T04:35:05;90977.63;;;1.81;82.20
84835;BME280;75078;42.636;23.198;2024-03-25T04:37:31;90973.22;;;1.66;79.99
84835;BME280;75078;42.636;23.198;2024-03-25T04:39:57;90974.38;;;1.57;81.39
84835;BME280;75078;42.636;23.198;2024-03-25T04:42:23;90978.59;;;1.53;81.37
84835;BME280;75078;42.636;23.198;2024-03-25T04:44:49;90979.75;;;1.43;81.92
84835;BME280;75078;42.636;23.198;2024-03-25T04:47:14;90978.91;;;1.39;82.81
84835;BME280;75078;42.636;23.198;2024-03-25T04:49:41;90982.78;;;1.36;83.06
84835;BME280;75078;42.636;23.198;2024-03-25T04:52:06;90978.66;;;1.32;82.99
84835;BME280;75078;42.636;23.198;2024-03-25T04:54:32;90984.50;;;1.32;83.00
84835;BME280;75078;42.636;23.198;2024-03-25T04:56:57;90984.28;;;1.37;83.10
84835;BME280;75078;42.636;23.198;2024-03-25T04:59:23;90980.06;;;1.41;82.20
84835;BME280;75078;42.636;23.198;2024-03-25T05:01:48;90974.56;;;1.39;82.50
84835;BME280;75078;42.636;23.198;2024-03-25T05:04:13;90978.91;;;1.51;83.88
84835;BME280;75078;42.636;23.198;2024-03-25T05:06:39;90993.41;;;1.63;84.18
84835;BME280;75078;42.636;23.198;2024-03-25T05:09:04;90995.72;;;1.68;85.79
84835;BME280;75078;42.636;23.198;2024-03-25T05:11:31;90989.91;;;1.67;83.63
84835;BME280;75078;42.636;23.198;2024-03-25T05:13:57;90993.09;;;1.76;81.18
84835;BME280;75078;42.636;23.198;2024-03-25T05:16:22;90993.38;;;1.75;79.20
84835;BME280;75078;42.636;23.198;2024-03-25T05:18:47;90991.06;;;1.82;81.66
84835;BME280;75078;42.636;23.198;2024-03-25T05:21:13;90997.50;;;1.79;82.25
84835;BME280;75078;42.636;23.198;2024-03-25T05:23:38;91007.13;;;1.86;81.28
84835;BME280;75078;42.636;23.198;2024-03-25T05:26:04;91013.25;;;1.73;81.09
84835;BME280;75078;42.636;23.198;2024-03-25T05:28:29;91012.78;;;1.34;79.09
84835;BME280;75078;42.636;23.198;2024-03-25T05:30:54;91017.47;;;1.44;82.07
84835;BME280;75078;42.636;23.198;2024-03-25T05:33:20;91015.78;;;1.61;80.31
84835;BME280;75078;42.636;23.198;2024-03-25T05:35:45;91016.63;;;1.77;80.42
84835;BME280;75078;42.636;23.198;2024-03-25T05:38:10;91017.06;;;1.79;81.22
84835;BME280;75078;42.636;23.198;2024-03-25T05:40:36;91036.00;;;1.81;78.04
84835;BME280;75078;42.636;23.198;2024-03-25T05:43:02;91034.22;;;1.94;82.80
84835;BME280;75078;42.636;23.198;2024-03-25T05:45:27;91045.41;;;2.05;81.93
84835;BME280;75078;42.636;23.198;2024-03-25T05:47:52;91047.63;;;2.06;80.43
84835;BME280;75078;42.636;23.198;2024-03-25T05:50:18;91046.69;;;2.11;75.45
84835;BME280;75078;42.636;23.198;2024-03-25T05:52:43;91055.38;;;2.10;76.65
84835;BME280;75078;42.636;23.198;2024-03-25T05:55:09;91066.69;;;2.12;78.66
84835;BME280;75078;42.636;23.198;2024-03-25T05:57:37;91058.41;;;2.28;76.40
84835;BME280;75078;42.636;23.198;2024-03-25T06:00:03;91064.03;;;2.21;78.70
84835;BME280;75078;42.636;23.198;2024-03-25T06:02:28;91056.59;;;1.80;75.61
84835;BME280;75078;42.636;23.198;2024-03-25T06:04:55;91064.81;;;1.53;75.96
84835;BME280;75078;42.636;23.198;2024-03-25T06:07:22;91061.56;;;1.64;81.64
84835;BME280;75078;42.636;23.198;2024-03-25T06:09:47;91074.66;;;1.66;79.31
84835;BME280;75078;42.636;23.198;2024-03-25T06:12:12;91074.13;;;1.61;80.60
84835;BME280;75078;42.636;23.198;2024-03-25T06:14:38;91076.97;;;1.59;79.54
84835;BME280;75078;42.636;23.198;2024-03-25T06:17:03;91079.94;;;1.61;81.36
84835;BME280;75078;42.636;23.198;2024-03-25T06:19:29;91085.66;;;1.58;78.31
84835;BME280;75078;42.636;23.198;2024-03-25T06:21:54;91095.75;;;1.46;79.63
84835;BME280;75078;42.636;23.198;2024-03-25T06:24:19;91088.47;;;1.44;79.86
84835;BME280;75078;42.636;23.198;2024-03-25T06:26:45;91084.88;;;1.45;83.24
84835;BME280;75078;42.636;23.198;2024-03-25T06:29:10;91088.38;;;1.53;80.24
84835;BME280;75078;42.636;23.198;2024-03-25T06:31:35;91092.50;;;1.58;80.80
84835;BME280;75078;42.636;23.198;2024-03-25T06:34:19;91101.41;;;1.64;82.13
84835;BME280;75078;42.636;23.198;2024-03-25T06:36:47;91098.91;;;1.76;78.52
84835;BME280;75078;42.636;23.198;2024-03-25T06:39:13;91111.59;;;1.88;81.76
84835;BME280;75078;42.636;23.198;2024-03-25T06:41:38;91105.38;;;1.97;80.11
84835;BME280;75078;42.636;23.198;2024-03-25T06:44:04;91109.69;;;1.85;77.04
84835;BME280;75078;42.636;23.198;2024-03-25T06:46:30;91109.03;;;1.88;79.12
84835;BME280;75078;42.636;23.198;2024-03-25T06:48:55;91103.38;;;2.03;77.23
84835;BME280;75078;42.636;23.198;2024-03-25T06:51:21;91104.31;;;1.98;74.69
84835;BME280;75078;42.636;23.198;2024-03-25T06:53:46;91111.28;;;2.01;76.33
84835;BME280;75078;42.636;23.198;2024-03-25T06:56:11;91117.56;;;2.16;76.19
84835;BME280;75078;42.636;23.198;2024-03-25T06:58:37;91117.75;;;2.11;76.35
84835;BME280;75078;42.636;23.198;2024-03-25T07:01:07;91122.41;;;2.09;76.11
84835;BME280;75078;42.636;23.198;2024-03-25T07:03:33;91122.19;;;2.14;77.27
84835;BME280;75078;42.636;23.198;2024-03-25T07:05:59;91126.22;;;2.15;73.95
84835;BME280;75078;42.636;23.198;2024-03-25T07:08:26;91127.69;;;2.16;73.94
84835;BME280;75078;42.636;23.198;2024-03-25T07:10:52;91123.16;;;2.09;76.36
84835;BME280;75078;42.636;23.198;2024-03-25T07:13:17;91138.25;;;2.06;78.29
84835;BME280;75078;42.636;23.198;2024-03-25T07:15:43;91139.34;;;2.17;75.31
84835;BME280;75078;42.636;23.198;2024-03-25T07:18:09;91147.28;;;2.28;76.72
84835;BME280;75078;42.636;23.198;2024-03-25T07:20:40;91153.97;;;2.44;79.12
84835;BME280;75078;42.636;23.198;2024-03-25T07:23:05;91157.25;;;2.57;78.74
84835;BME280;75078;42.636;23.198;2024-03-25T07:25:31;91158.81;;;2.61;77.54
84835;BME280;75078;42.636;23.198;2024-03-25T07:27:57;91155.97;;;2.63;77.14
84835;BME280;75078;42.636;23.198;2024-03-25T07:30:22;91151.31;;;2.53;74.61
84835;BME280;75078;42.636;23.198;2024-03-25T07:32:50;91147.38;;;2.67;76.18
84835;BME280;75078;42.636;23.198;2024-03-25T07:35:16;91143.34;;;2.78;76.53
84835;BME280;75078;42.636;23.198;2024-03-25T07:37:45;91145.69;;;2.83;75.75
84835;BME280;75078;42.636;23.198;2024-03-25T07:40:10;91153.91;;;2.92;74.38
84835;BME280;75078;42.636;23.198;2024-03-25T07:42:37;91149.66;;;2.97;74.61
84835;BME280;75078;42.636;23.198;2024-03-25T07:45:03;91147.31;;;3.16;74.80
84835;BME280;75078;42.636;23.198;2024-03-25T07:47:30;91154.91;;;3.28;73.69
84835;BME280;75078;42.636;23.198;2024-03-25T07:49:55;91151.88;;;3.50;74.65
84835;BME280;75078;42.636;23.198;2024-03-25T07:52:21;91155.22;;;3.66;71.91
84835;BME280;75078;42.636;23.198;2024-03-25T07:54:47;91155.28;;;3.70;70.54
84835;BME280;75078;42.636;23.198;2024-03-25T07:57:12;91157.47;;;3.55;68.96
84835;BME280;75078;42.636;23.198;2024-03-25T07:59:38;91154.00;;;3.48;75.75
84835;BME280;75078;42.636;23.198;2024-03-25T08:02:03;91152.16;;;3.60;75.52
84835;BME280;75078;42.636;23.198;2024-03-25T08:04:28;91152.53;;;3.90;73.80
84835;BME280;75078;42.636;23.198;2024-03-25T08:06:54;91160.22;;;4.21;75.27
84835;BME280;75078;42.636;23.198;2024-03-25T08:09:20;91164.09;;;4.15;70.40
84835;BME280;75078;42.636;23.198;2024-03-25T08:11:45;91160.22;;;4.21;72.66
84835;BME280;75078;42.636;23.198;2024-03-25T08:14:10;91159.56;;;4.24;72.76
84835;BME280;75078;42.636;23.198;2024-03-25T08:16:36;91173.94;;;4.48;71.33
84835;BME280;75078;42.636;23.198;2024-03-25T08:19:01;91176.25;;;4.38;73.79
84835;BME280;75078;42.636;23.198;2024-03-25T08:21:27;91178.16;;;4.41;72.46
84835;BME280;75078;42.636;23.198;2024-03-25T08:23:52;91184.38;;;4.27;70.18
84835;BME280;75078;42.636;23.198;2024-03-25T08:26:17;91186.84;;;4.24;69.60
84835;BME280;75078;42.636;23.198;2024-03-25T08:28:43;91186.09;;;4.08;67.06
84835;BME280;75078;42.636;23.198;2024-03-25T08:31:08;91190.78;;;4.21;71.00
84835;BME280;75078;42.636;23.198;2024-03-25T08:33:33;91190.50;;;4.39;71.17
84835;BME280;75078;42.636;23.198;2024-03-25T08:35:59;91190.50;;;4.54;69.60
84835;BME280;75078;42.636;23.198;2024-03-25T08:38:24;91204.22;;;4.50;68.91
84835;BME280;75078;42.636;23.198;2024-03-25T08:40:50;91195.59;;;4.39;67.37
84835;BME280;75078;42.636;23.198;2024-03-25T08:43:16;91197.63;;;4.33;68.87
84835;BME280;75078;42.636;23.198;2024-03-25T08:45:42;91195.81;;;4.33;69.35
84835;BME280;75078;42.636;23.198;2024-03-25T08:48:08;91200.97;;;4.21;69.15
84835;BME280;75078;42.636;23.198;2024-03-25T08:50:33;91203.88;;;3.92;68.79
84835;BME280;75078;42.636;23.198;2024-03-25T08:52:58;91199.28;;;3.82;68.74
84835;BME280;75078;42.636;23.198;2024-03-25T08:55:24;91199.94;;;3.67;70.52
84835;BME280;75078;42.636;23.198;2024-03-25T08:57:49;91201.03;;;3.66;68.97
84835;BME280;75078;42.636;23.198;2024-03-25T09:00:16;91204.16;;;3.75;71.14
84835;BME280;75078;42.636;23.198;2024-03-25T09:02:43;91197.91;;;3.73;70.18
84835;BME280;75078;42.636;23.198;2024-03-25T09:05:08;91204.28;;;3.67;69.38
84835;BME280;75078;42.636;23.198;2024-03-25T09:07:34;91199.31;;;3.70;69.63
84835;BME280;75078;42.636;23.198;2024-03-25T09:10:00;91201.47;;;3.84;72.49
84835;BME280;75078;42.636;23.198;2024-03-25T09:12:43;91200.34;;;3.97;70.56
84835;BME280;75078;42.636;23.198;2024-03-25T09:15:09;91208.13;;;3.88;69.16
84835;BME280;75078;42.636;23.198;2024-03-25T09:17:37;91213.41;;;3.95;69.23
84835;BME280;75078;42.636;23.198;2024-03-25T09:20:03;91210.22;;;3.98;71.96
84835;BME280;75078;42.636;23.198;2024-03-25T09:22:42;91214.69;;;3.89;68.92
84835;BME280;75078;42.636;23.198;2024-03-25T09:25:07;91218.75;;;3.90;72.40
84835;BME280;75078;42.636;23.198;2024-03-25T09:27:32;91223.22;;;3.81;68.65
84835;BME280;75078;42.636;23.198;2024-03-25T09:29:58;91214.44;;;3.79;68.87
84835;BME280;75078;42.636;23.198;2024-03-25T09:32:23;91225.34;;;3.79;68.84
84835;BME280;75078;42.636;23.198;2024-03-25T09:34:49;91227.72;;;3.72;71.92
84835;BME280;75078;42.636;23.198;2024-03-25T09:37:15;91222.03;;;3.91;68.84
84835;BME280;75078;42.636;23.198;2024-03-25T09:39:41;91225.03;;;4.08;69.21
84835;BME280;75078;42.636;23.198;2024-03-25T09:42:07;91223.56;;;4.23;70.64
84835;BME280;75078;42.636;23.198;2024-03-25T09:44:33;91219.16;;;4.35;68.57
84835;BME280;75078;42.636;23.198;2024-03-25T09:47:00;91221.22;;;4.46;67.71
84835;BME280;75078;42.636;23.198;2024-03-25T09:49:25;91228.63;;;4.51;68.95
84835;BME280;75078;42.636;23.198;2024-03-25T09:51:51;91222.88;;;4.54;69.51
84835;BME280;75078;42.636;23.198;2024-03-25T09:54:17;91222.88;;;4.54;67.68
84835;BME280;75078;42.636;23.198;2024-03-25T09:56:43;91227.97;;;4.54;67.89
84835;BME280;75078;42.636;23.198;2024-03-25T09:59:09;91231.69;;;4.56;66.40
84835;BME280;75078;42.636;23.198;2024-03-25T10:01:34;91233.25;;;4.61;66.11
84835;BME280;75078;42.636;23.198;2024-03-25T10:04:00;91231.34;;;4.58;63.14
84835;BME280;75078;42.636;23.198;2024-03-25T10:06:25;91244.31;;;4.68;63.77
84835;BME280;75078;42.636;23.198;2024-03-25T10:08:53;91235.13;;;4.64;66.61
84835;BME280;75078;42.636;23.198;2024-03-25T10:11:19;91232.25;;;4.65;65.90
84835;BME280;75078;42.636;23.198;2024-03-25T10:13:44;91238.16;;;4.85;66.27
84835;BME280;75078;42.636;23.198;2024-03-25T10:16:10;91244.09;;;4.89;64.74
84835;BME280;75078;42.636;23.198;2024-03-25T10:18:35;91242.94;;;5.02;64.71
84835;BME280;75078;42.636;23.198;2024-03-25T10:21:01;91244.41;;;5.03;63.05
84835;BME280;75078;42.636;23.198;2024-03-25T10:23:29;91235.94;;;5.15;62.75
84835;BME280;75078;42.636;23.198;2024-03-25T10:25:54;91227.44;;;5.26;61.92
84835;BME280;75078;42.636;23.198;2024-03-25T10:28:20;91231.03;;;5.25;62.49
84835;BME280;75078;42.636;23.198;2024-03-25T10:30:46;91231.03;;;5.25;65.76
84835;BME280;75078;42.636;23.198;2024-03-25T10:33:12;91233.19;;;5.23;62.22
84835;BME280;75078;42.636;23.198;2024-03-25T10:35:39;91234.97;;;5.38;64.11
84835;BME280;75078;42.636;23.198;2024-03-25T10:38:06;91223.13;;;5.30;61.49
84835;BME280;75078;42.636;23.198;2024-03-25T10:40:36;91236.75;;;5.72;60.06
84835;BME280;75078;42.636;23.198;2024-03-25T10:43:09;91232.34;;;6.27;57.21
84835;BME280;75078;42.636;23.198;2024-03-25T10:45:47;91229.25;;;7.05;59.32
84835;BME280;75078;42.636;23.198;2024-03-25T10:48:27;91229.31;;;7.35;55.29
84835;BME280;75078;42.636;23.198;2024-03-25T10:50:55;91236.28;;;7.93;58.07
84835;BME280;75078;42.636;23.198;2024-03-25T10:53:22;91223.78;;;7.59;51.67
84835;BME280;75078;42.636;23.198;2024-03-25T10:55:54;91229.75;;;7.40;51.95
84835;BME280;75078;42.636;23.198;2024-03-25T10:58:21;91230.34;;;7.30;52.21
84835;BME280;75078;42.636;23.198;2024-03-25T11:00:48;91230.34;;;7.30;50.78
84835;BME280;75078;42.636;23.198;2024-03-25T11:03:14;91238.09;;;7.11;54.83
84835;BME280;75078;42.636;23.198;2024-03-25T11:05:39;91233.97;;;6.80;52.99
84835;BME280;75078;42.636;23.198;2024-03-25T11:08:12;91239.28;;;6.49;54.11
84835;BME280;75078;42.636;23.198;2024-03-25T11:10:45;91236.91;;;6.37;57.11
84835;BME280;75078;42.636;23.198;2024-03-25T11:13:17;91232.53;;;6.37;58.58
84835;BME280;75078;42.636;23.198;2024-03-25T11:15:44;91221.50;;;6.33;54.85
84835;BME280;75078;42.636;23.198;2024-03-25T11:18:13;91215.00;;;6.17;57.13
84835;BME280;75078;42.636;23.198;2024-03-25T11:20:39;91215.47;;;6.22;56.70
84835;BME280;75078;42.636;23.198;2024-03-25T11:23:12;91222.72;;;6.20;56.71
84835;BME280;75078;42.636;23.198;2024-03-25T11:25:39;91240.00;;;6.27;54.77
84835;BME280;75078;42.636;23.198;2024-03-25T11:28:05;91258.63;;;6.27;57.03
84835;BME280;75078;42.636;23.198;2024-03-25T11:30:31;91268.53;;;6.10;55.14
84835;BME280;75078;42.636;23.198;2024-03-25T11:33:00;91269.94;;;5.72;60.32
84835;BME280;75078;42.636;23.198;2024-03-25T11:35:26;91259.00;;;5.37;61.73
84835;BME280;75078;42.636;23.198;2024-03-25T11:37:51;91265.94;;;5.21;61.33
84835;BME280;75078;42.636;23.198;2024-03-25T11:40:17;91259.22;;;5.13;60.52
84835;BME280;75078;42.636;23.198;2024-03-25T11:42:44;91260.03;;;5.17;62.84
84835;BME280;75078;42.636;23.198;2024-03-25T11:45:18;91250.78;;;5.28;65.23
84835;BME280;75078;42.636;23.198;2024-03-25T11:47:44;91258.91;;;5.34;62.43
84835;BME280;75078;42.636;23.198;2024-03-25T11:50:12;91262.03;;;5.77;62.20
84835;BME280;75078;42.636;23.198;2024-03-25T11:52:38;91247.97;;;6.22;64.52
84835;BME280;75078;42.636;23.198;2024-03-25T11:55:04;91245.53;;;5.91;61.74
84835;BME280;75078;42.636;23.198;2024-03-25T11:57:29;91252.22;;;5.60;62.71
84835;BME280;75078;42.636;23.198;2024-03-25T11:59:55;91252.41;;;5.71;61.14
84835;BME280;75078;42.636;23.198;2024-03-25T12:02:21;91260.03;;;5.67;57.56
84835;BME280;75078;42.636;23.198;2024-03-25T12:04:47;91249.91;;;5.55;57.45
84835;BME280;75078;42.636;23.198;2024-03-25T12:07:13;91262.22;;;5.69;59.30
84835;BME280;75078;42.636;23.198;2024-03-25T12:09:39;91249.19;;;5.90;60.31
84835;BME280;75078;42.636;23.198;2024-03-25T12:12:24;91253.06;;;6.03;58.45
84835;BME280;75078;42.636;23.198;2024-03-25T12:14:50;91257.50;;;6.44;61.51
84835;BME280;75078;42.636;23.198;2024-03-25T12:17:16;91253.81;;;6.64;57.03
84835;BME280;75078;42.636;23.198;2024-03-25T12:19:42;91246.97;;;6.72;55.90
84835;BME280;75078;42.636;23.198;2024-03-25T12:22:07;91240.84;;;6.76;59.77
84835;BME280;75078;42.636;23.198;2024-03-25T12:24:33;91242.72;;;7.02;60.80
84835;BME280;75078;42.636;23.198;2024-03-25T12:26:59;91242.69;;;7.24;58.57
84835;BME280;75078;42.636;23.198;2024-03-25T12:29:25;91236.97;;;7.61;58.15
84835;BME280;75078;42.636;23.198;2024-03-25T12:31:54;91235.41;;;7.82;55.92
84835;BME280;75078;42.636;23.198;2024-03-25T12:34:20;91231.81;;;8.20;56.62
84835;BME280;75078;42.636;23.198;2024-03-25T12:36:45;91229.09;;;8.36;52.75
84835;BME280;75078;42.636;23.198;2024-03-25T12:39:16;91237.19;;;8.08;53.44
84835;BME280;75078;42.636;23.198;2024-03-25T12:41:41;91236.00;;;7.69;53.49
84835;BME280;75078;42.636;23.198;2024-03-25T12:44:07;91233.53;;;7.50;51.58
84835;BME280;75078;42.636;23.198;2024-03-25T12:46:32;91254.03;;;7.50;50.20
84835;BME280;75078;42.636;23.198;2024-03-25T12:48:58;91253.44;;;7.60;54.27
84835;BME280;75078;42.636;23.198;2024-03-25T12:51:24;91247.97;;;7.91;51.93
84835;BME280;75078;42.636;23.198;2024-03-25T12:53:50;91246.59;;;8.01;47.73